sensor_id;sensor_type;location;lat;lon;timestamp;P1;durP1;ratioP1;P2;durP2;ratioP2
75189;SDS011;69198;44.694;37.790;2023-05-27T00:00:15;27.50;;;11.57;;
75189;SDS011;69198;44.694;37.790;2023-05-27T00:01:17;27.83;;;11.38;;
75189;SDS011;69198;44.694;37.790;2023-05-27T00:02:18;27.20;;;11.13;;
75189;SDS011;69198;44.694;37.790;2023-05-27T00:03:19;28.05;;;11.10;;
75189;SDS011;69198;44.694;37.790;2023-05-27T00:04:20;27.95;;;11.57;;
75189;SDS011;69198;44.694;37.790;2023-05-27T00:05:21;22.10;;;9.77;;
75189;SDS011;69198;44.694;37.790;2023-05-27T00:06:22;25.33;;;10.67;;
75189;SDS011;69198;44.694;37.790;2023-05-27T00:07:24;28.23;;;10.85;;
75189;SDS011;69198;44.694;37.790;2023-05-27T00:08:25;27.55;;;11.30;;
75189;SDS011;69198;44.694;37.790;2023-05-27T00:09:26;26.20;;;10.75;;
75189;SDS011;69198;44.694;37.790;2023-05-27T00:10:27;30.00;;;11.93;;
75189;SDS011;69198;44.694;37.790;2023-05-27T00:11:28;28.60;;;11.80;;
75189;SDS011;69198;44.694;37.790;2023-05-27T00:12:29;27.45;;;11.73;;
75189;SDS011;69198;44.694;37.790;2023-05-27T00:13:30;28.85;;;10.93;;
75189;SDS011;69198;44.694;37.790;2023-05-27T00:14:31;27.33;;;11.80;;
75189;SDS011;69198;44.694;37.790;2023-05-27T00:15:32;26.50;;;10.93;;
75189;SDS011;69198;44.694;37.790;2023-05-27T00:16:33;26.90;;;10.82;;
75189;SDS011;69198;44.694;37.790;2023-05-27T00:17:36;29.30;;;11.35;;
75189;SDS011;69198;44.694;37.790;2023-05-27T00:18:39;27.73;;;10.07;;
75189;SDS011;69198;44.694;37.790;2023-05-27T00:19:41;30.23;;;11.07;;
75189;SDS011;69198;44.694;37.790;2023-05-27T00:20:48;28.45;;;10.85;;
75189;SDS011;69198;44.694;37.790;2023-05-27T00:21:49;28.05;;;10.43;;
75189;SDS011;69198;44.694;37.790;2023-05-27T00:22:52;28.13;;;11.85;;
75189;SDS011;69198;44.694;37.790;2023-05-27T00:23:53;27.73;;;11.15;;
75189;SDS011;69198;44.694;37.790;2023-05-27T00:24:58;27.83;;;11.82;;
75189;SDS011;69198;44.694;37.790;2023-05-27T00:25:59;27.07;;;11.17;;
75189;SDS011;69198;44.694;37.790;2023-05-27T00:27:00;28.50;;;11.63;;
75189;SDS011;69198;44.694;37.790;2023-05-27T00:28:03;30.30;;;11.32;;
75189;SDS011;69198;44.694;37.790;2023-05-27T00:29:04;28.08;;;10.52;;
75189;SDS011;69198;44.694;37.790;2023-05-27T00:30:05;27.17;;;10.13;;
75189;SDS011;69198;44.694;37.790;2023-05-27T00:31:08;26.90;;;11.35;;
75189;SDS011;69198;44.694;37.790;2023-05-27T00:32:09;22.95;;;10.32;;
75189;SDS011;69198;44.694;37.790;2023-05-27T00:33:11;27.40;;;11.20;;
75189;SDS011;69198;44.694;37.790;2023-05-27T00:34:11;27.25;;;11.90;;
75189;SDS011;69198;44.694;37.790;2023-05-27T00:35:13;28.03;;;11.70;;
75189;SDS011;69198;44.694;37.790;2023-05-27T00:36:14;28.08;;;11.25;;
75189;SDS011;69198;44.694;37.790;2023-05-27T00:37:15;24.50;;;11.10;;
75189;SDS011;69198;44.694;37.790;2023-05-27T00:38:16;23.90;;;10.68;;
75189;SDS011;69198;44.694;37.790;2023-05-27T00:39:17;29.15;;;11.73;;
75189;SDS011;69198;44.694;37.790;2023-05-27T00:40:20;27.02;;;11.20;;
75189;SDS011;69198;44.694;37.790;2023-05-27T00:41:23;22.95;;;9.77;;
75189;SDS011;69198;44.694;37.790;2023-05-27T00:42:26;25.67;;;10.55;;
75189;SDS011;69198;44.694;37.790;2023-05-27T00:43:27;26.98;;;10.15;;
75189;SDS011;69198;44.694;37.790;2023-05-27T00:44:31;27.30;;;10.30;;
75189;SDS011;69198;44.694;37.790;2023-05-27T00:45:32;23.70;;;10.15;;
75189;SDS011;69198;44.694;37.790;2023-05-27T00:46:33;26.13;;;10.13;;
75189;SDS011;69198;44.694;37.790;2023-05-27T00:47:34;27.10;;;11.00;;
75189;SDS011;69198;44.694;37.790;2023-05-27T00:48:35;27.08;;;10.88;;
75189;SDS011;69198;44.694;37.790;2023-05-27T00:49:37;25.73;;;10.65;;
75189;SDS011;69198;44.694;37.790;2023-05-27T00:50:38;26.17;;;10.07;;
75189;SDS011;69198;44.694;37.790;2023-05-27T00:51:40;25.60;;;10.20;;
75189;SDS011;69198;44.694;37.790;2023-05-27T00:52:41;25.63;;;10.05;;
75189;SDS011;69198;44.694;37.790;2023-05-27T00:53:43;22.60;;;9.80;;
75189;SDS011;69198;44.694;37.790;2023-05-27T00:54:47;21.67;;;9.57;;
75189;SDS011;69198;44.694;37.790;2023-05-27T00:55:50;25.60;;;9.68;;
75189;SDS011;69198;44.694;37.790;2023-05-27T00:56:54;19.10;;;8.50;;
75189;SDS011;69198;44.694;37.790;2023-05-27T00:57:55;22.42;;;9.55;;
75189;SDS011;69198;44.694;37.790;2023-05-27T00:58:57;20.17;;;8.27;;
75189;SDS011;69198;44.694;37.790;2023-05-27T00:59:58;21.63;;;8.23;;
75189;SDS011;69198;44.694;37.790;2023-05-27T01:00:59;18.08;;;8.23;;
75189;SDS011;69198;44.694;37.790;2023-05-27T01:02:00;20.52;;;7.85;;
75189;SDS011;69198;44.694;37.790;2023-05-27T01:03:01;17.33;;;7.65;;
75189;SDS011;69198;44.694;37.790;2023-05-27T01:04:03;18.67;;;8.47;;
75189;SDS011;69198;44.694;37.790;2023-05-27T01:05:04;18.25;;;8.15;;
75189;SDS011;69198;44.694;37.790;2023-05-27T01:08:52;16.83;;;7.68;;
75189;SDS011;69198;44.694;37.790;2023-05-27T01:10:14;20.30;;;8.38;;
75189;SDS011;69198;44.694;37.790;2023-05-27T01:11:25;20.73;;;8.32;;
75189;SDS011;69198;44.694;37.790;2023-05-27T01:12:35;20.13;;;7.93;;
75189;SDS011;69198;44.694;37.790;2023-05-27T01:13:41;19.77;;;8.07;;
75189;SDS011;69198;44.694;37.790;2023-05-27T01:14:46;22.17;;;7.97;;
75189;SDS011;69198;44.694;37.790;2023-05-27T01:15:52;23.30;;;8.60;;
75189;SDS011;69198;44.694;37.790;2023-05-27T01:16:56;24.70;;;8.55;;
75189;SDS011;69198;44.694;37.790;2023-05-27T01:18:02;22.42;;;8.70;;
75189;SDS011;69198;44.694;37.790;2023-05-27T01:19:04;21.13;;;8.60;;
75189;SDS011;69198;44.694;37.790;2023-05-27T01:20:11;21.00;;;8.05;;
75189;SDS011;69198;44.694;37.790;2023-05-27T01:21:16;17.20;;;7.25;;
75189;SDS011;69198;44.694;37.790;2023-05-27T01:22:19;17.58;;;7.68;;
75189;SDS011;69198;44.694;37.790;2023-05-27T01:23:21;19.63;;;7.85;;
75189;SDS011;69198;44.694;37.790;2023-05-27T01:24:22;19.25;;;7.75;;
75189;SDS011;69198;44.694;37.790;2023-05-27T01:25:23;18.87;;;7.33;;
75189;SDS011;69198;44.694;37.790;2023-05-27T01:26:24;15.63;;;7.13;;
75189;SDS011;69198;44.694;37.790;2023-05-27T01:27:25;16.80;;;6.60;;
75189;SDS011;69198;44.694;37.790;2023-05-27T01:28:27;16.27;;;7.32;;
75189;SDS011;69198;44.694;37.790;2023-05-27T01:29:28;15.93;;;7.28;;
75189;SDS011;69198;44.694;37.790;2023-05-27T01:30:30;16.80;;;7.47;;
75189;SDS011;69198;44.694;37.790;2023-05-27T01:31:40;13.80;;;6.30;;
75189;SDS011;69198;44.694;37.790;2023-05-27T01:33:49;15.48;;;6.53;;
75189;SDS011;69198;44.694;37.790;2023-05-27T01:35:03;17.48;;;6.55;;
75189;SDS011;69198;44.694;37.790;2023-05-27T01:36:24;17.02;;;6.07;;
75189;SDS011;69198;44.694;37.790;2023-05-27T01:37:29;14.87;;;6.50;;
75189;SDS011;69198;44.694;37.790;2023-05-27T01:38:34;17.92;;;6.75;;
75189;SDS011;69198;44.694;37.790;2023-05-27T01:39:39;15.25;;;6.70;;
75189;SDS011;69198;44.694;37.790;2023-05-27T01:40:42;13.93;;;6.15;;
75189;SDS011;69198;44.694;37.790;2023-05-27T01:41:44;16.92;;;6.88;;
75189;SDS011;69198;44.694;37.790;2023-05-27T01:42:48;15.25;;;6.25;;
75189;SDS011;69198;44.694;37.790;2023-05-27T01:43:50;15.30;;;6.50;;
75189;SDS011;69198;44.694;37.790;2023-05-27T01:44:52;14.15;;;6.45;;
75189;SDS011;69198;44.694;37.790;2023-05-27T01:45:54;17.10;;;6.63;;
75189;SDS011;69198;44.694;37.790;2023-05-27T01:46:59;15.18;;;6.10;;
75189;SDS011;69198;44.694;37.790;2023-05-27T01:48:00;13.93;;;6.60;;
75189;SDS011;69198;44.694;37.790;2023-05-27T01:49:02;19.83;;;6.40;;
75189;SDS011;69198;44.694;37.790;2023-05-27T01:50:04;14.80;;;5.82;;
75189;SDS011;69198;44.694;37.790;2023-05-27T01:51:05;13.75;;;6.63;;
75189;SDS011;69198;44.694;37.790;2023-05-27T01:52:07;15.18;;;7.28;;
75189;SDS011;69198;44.694;37.790;2023-05-27T01:53:09;15.85;;;6.22;;
75189;SDS011;69198;44.694;37.790;2023-05-27T01:54:12;15.35;;;6.20;;
75189;SDS011;69198;44.694;37.790;2023-05-27T01:55:13;14.52;;;6.68;;
75189;SDS011;69198;44.694;37.790;2023-05-27T01:56:14;15.25;;;6.15;;
75189;SDS011;69198;44.694;37.790;2023-05-27T01:57:16;14.40;;;6.15;;
75189;SDS011;69198;44.694;37.790;2023-05-27T01:58:18;13.70;;;6.63;;
75189;SDS011;69198;44.694;37.790;2023-05-27T01:59:19;14.63;;;6.68;;
75189;SDS011;69198;44.694;37.790;2023-05-27T02:00:20;15.75;;;6.20;;
75189;SDS011;69198;44.694;37.790;2023-05-27T02:01:21;15.93;;;6.43;;
75189;SDS011;69198;44.694;37.790;2023-05-27T02:02:25;16.63;;;6.20;;
75189;SDS011;69198;44.694;37.790;2023-05-27T02:03:26;16.35;;;7.03;;
75189;SDS011;69198;44.694;37.790;2023-05-27T02:04:27;14.57;;;6.68;;
75189;SDS011;69198;44.694;37.790;2023-05-27T02:05:29;14.18;;;6.68;;
75189;SDS011;69198;44.694;37.790;2023-05-27T02:06:31;15.75;;;6.70;;
75189;SDS011;69198;44.694;37.790;2023-05-27T02:07:36;13.90;;;6.38;;
75189;SDS011;69198;44.694;37.790;2023-05-27T02:08:37;15.20;;;6.50;;
75189;SDS011;69198;44.694;37.790;2023-05-27T02:09:38;16.92;;;6.75;;
75189;SDS011;69198;44.694;37.790;2023-05-27T02:10:39;14.52;;;6.57;;
75189;SDS011;69198;44.694;37.790;2023-05-27T02:11:40;14.80;;;6.47;;
75189;SDS011;69198;44.694;37.790;2023-05-27T02:12:41;15.93;;;6.63;;
75189;SDS011;69198;44.694;37.790;2023-05-27T02:13:42;17.20;;;6.15;;
75189;SDS011;69198;44.694;37.790;2023-05-27T02:14:44;14.98;;;6.60;;
75189;SDS011;69198;44.694;37.790;2023-05-27T02:15:45;14.55;;;6.70;;
75189;SDS011;69198;44.694;37.790;2023-05-27T02:16:46;15.05;;;6.35;;
75189;SDS011;69198;44.694;37.790;2023-05-27T02:17:49;12.90;;;5.80;;
75189;SDS011;69198;44.694;37.790;2023-05-27T02:18:57;13.75;;;6.38;;
75189;SDS011;69198;44.694;37.790;2023-05-27T02:19:59;17.05;;;6.68;;
75189;SDS011;69198;44.694;37.790;2023-05-27T02:21:00;14.88;;;7.07;;
75189;SDS011;69198;44.694;37.790;2023-05-27T02:22:06;17.70;;;7.10;;
75189;SDS011;69198;44.694;37.790;2023-05-27T02:23:10;15.63;;;6.70;;
75189;SDS011;69198;44.694;37.790;2023-05-27T02:24:11;14.40;;;6.43;;
75189;SDS011;69198;44.694;37.790;2023-05-27T02:25:12;17.48;;;6.75;;
75189;SDS011;69198;44.694;37.790;2023-05-27T02:26:13;14.73;;;6.03;;
75189;SDS011;69198;44.694;37.790;2023-05-27T02:27:14;14.53;;;6.17;;
75189;SDS011;69198;44.694;37.790;2023-05-27T02:28:16;15.32;;;6.10;;
75189;SDS011;69198;44.694;37.790;2023-05-27T02:29:18;17.10;;;7.10;;
75189;SDS011;69198;44.694;37.790;2023-05-27T02:30:20;15.65;;;6.75;;
75189;SDS011;69198;44.694;37.790;2023-05-27T02:31:21;16.50;;;6.95;;
75189;SDS011;69198;44.694;37.790;2023-05-27T02:32:22;17.25;;;6.53;;
75189;SDS011;69198;44.694;37.790;2023-05-27T02:33:23;14.88;;;6.82;;
75189;SDS011;69198;44.694;37.790;2023-05-27T02:34:24;17.17;;;6.72;;
75189;SDS011;69198;44.694;37.790;2023-05-27T02:35:27;15.77;;;6.57;;
75189;SDS011;69198;44.694;37.790;2023-05-27T02:36:28;16.27;;;6.78;;
75189;SDS011;69198;44.694;37.790;2023-05-27T02:37:29;13.40;;;6.17;;
75189;SDS011;69198;44.694;37.790;2023-05-27T02:38:32;18.05;;;7.07;;
75189;SDS011;69198;44.694;37.790;2023-05-27T02:39:33;16.42;;;7.30;;
75189;SDS011;69198;44.694;37.790;2023-05-27T02:40:34;15.75;;;6.95;;
75189;SDS011;69198;44.694;37.790;2023-05-27T02:41:35;21.67;;;7.20;;
75189;SDS011;69198;44.694;37.790;2023-05-27T02:42:36;18.42;;;6.97;;
75189;SDS011;69198;44.694;37.790;2023-05-27T02:43:38;16.83;;;7.25;;
75189;SDS011;69198;44.694;37.790;2023-05-27T02:44:40;15.82;;;6.95;;
75189;SDS011;69198;44.694;37.790;2023-05-27T02:45:42;15.35;;;6.72;;
75189;SDS011;69198;44.694;37.790;2023-05-27T02:46:43;18.33;;;6.93;;
75189;SDS011;69198;44.694;37.790;2023-05-27T02:47:44;20.57;;;6.87;;
75189;SDS011;69198;44.694;37.790;2023-05-27T02:48:45;16.98;;;6.50;;
75189;SDS011;69198;44.694;37.790;2023-05-27T02:49:47;16.90;;;6.63;;
75189;SDS011;69198;44.694;37.790;2023-05-27T02:50:48;20.23;;;7.43;;
75189;SDS011;69198;44.694;37.790;2023-05-27T02:51:49;15.68;;;6.80;;
75189;SDS011;69198;44.694;37.790;2023-05-27T02:52:51;15.57;;;6.55;;
75189;SDS011;69198;44.694;37.790;2023-05-27T02:53:52;14.77;;;6.63;;
75189;SDS011;69198;44.694;37.790;2023-05-27T02:54:53;14.57;;;6.72;;
75189;SDS011;69198;44.694;37.790;2023-05-27T02:55:55;20.42;;;7.65;;
75189;SDS011;69198;44.694;37.790;2023-05-27T02:56:56;15.82;;;7.05;;
75189;SDS011;69198;44.694;37.790;2023-05-27T02:57:57;15.43;;;6.53;;
75189;SDS011;69198;44.694;37.790;2023-05-27T02:58:58;16.60;;;6.75;;
75189;SDS011;69198;44.694;37.790;2023-05-27T03:00:00;16.70;;;6.65;;
75189;SDS011;69198;44.694;37.790;2023-05-27T03:01:01;14.43;;;6.50;;
75189;SDS011;69198;44.694;37.790;2023-05-27T03:02:02;18.45;;;6.72;;
75189;SDS011;69198;44.694;37.790;2023-05-27T03:03:03;15.15;;;6.82;;
75189;SDS011;69198;44.694;37.790;2023-05-27T03:04:05;14.88;;;6.65;;
75189;SDS011;69198;44.694;37.790;2023-05-27T03:05:06;17.13;;;6.30;;
75189;SDS011;69198;44.694;37.790;2023-05-27T03:06:08;17.30;;;6.80;;
75189;SDS011;69198;44.694;37.790;2023-05-27T03:07:09;15.20;;;6.47;;
75189;SDS011;69198;44.694;37.790;2023-05-27T03:08:10;13.93;;;6.47;;
75189;SDS011;69198;44.694;37.790;2023-05-27T03:09:11;17.58;;;6.78;;
75189;SDS011;69198;44.694;37.790;2023-05-27T03:10:14;16.02;;;7.00;;
75189;SDS011;69198;44.694;37.790;2023-05-27T03:11:15;18.45;;;6.90;;
75189;SDS011;69198;44.694;37.790;2023-05-27T03:12:16;16.48;;;6.85;;
75189;SDS011;69198;44.694;37.790;2023-05-27T03:13:17;14.32;;;7.43;;
75189;SDS011;69198;44.694;37.790;2023-05-27T03:14:18;17.40;;;7.32;;
75189;SDS011;69198;44.694;37.790;2023-05-27T03:15:20;18.23;;;7.00;;
75189;SDS011;69198;44.694;37.790;2023-05-27T03:16:22;15.15;;;7.10;;
75189;SDS011;69198;44.694;37.790;2023-05-27T03:17:23;17.37;;;6.57;;
75189;SDS011;69198;44.694;37.790;2023-05-27T03:18:24;14.93;;;6.50;;
75189;SDS011;69198;44.694;37.790;2023-05-27T03:19:25;15.80;;;6.40;;
75189;SDS011;69198;44.694;37.790;2023-05-27T03:20:26;14.85;;;6.30;;
75189;SDS011;69198;44.694;37.790;2023-05-27T03:21:27;12.93;;;6.55;;
75189;SDS011;69198;44.694;37.790;2023-05-27T03:22:28;14.75;;;6.22;;
75189;SDS011;69198;44.694;37.790;2023-05-27T03:23:29;17.48;;;6.30;;
75189;SDS011;69198;44.694;37.790;2023-05-27T03:24:30;13.07;;;6.50;;
75189;SDS011;69198;44.694;37.790;2023-05-27T03:25:31;15.10;;;6.72;;
75189;SDS011;69198;44.694;37.790;2023-05-27T03:26:36;14.33;;;6.60;;
75189;SDS011;69198;44.694;37.790;2023-05-27T03:27:39;13.13;;;6.05;;
75189;SDS011;69198;44.694;37.790;2023-05-27T03:28:44;12.80;;;5.97;;
75189;SDS011;69198;44.694;37.790;2023-05-27T03:29:45;15.50;;;6.32;;
75189;SDS011;69198;44.694;37.790;2023-05-27T03:30:48;14.38;;;5.75;;
75189;SDS011;69198;44.694;37.790;2023-05-27T03:32:01;13.10;;;5.95;;
75189;SDS011;69198;44.694;37.790;2023-05-27T03:33:03;17.15;;;6.05;;
75189;SDS011;69198;44.694;37.790;2023-05-27T03:34:09;15.48;;;6.03;;
75189;SDS011;69198;44.694;37.790;2023-05-27T03:35:14;16.08;;;6.13;;
75189;SDS011;69198;44.694;37.790;2023-05-27T03:36:18;13.30;;;6.00;;
75189;SDS011;69198;44.694;37.790;2023-05-27T03:37:21;16.23;;;6.40;;
75189;SDS011;69198;44.694;37.790;2023-05-27T03:38:32;15.35;;;6.05;;
75189;SDS011;69198;44.694;37.790;2023-05-27T03:39:33;15.88;;;6.10;;
75189;SDS011;69198;44.694;37.790;2023-05-27T03:40:34;15.75;;;6.28;;
75189;SDS011;69198;44.694;37.790;2023-05-27T03:41:39;14.95;;;6.10;;
75189;SDS011;69198;44.694;37.790;2023-05-27T03:42:42;16.60;;;6.57;;
75189;SDS011;69198;44.694;37.790;2023-05-27T03:43:45;14.20;;;5.88;;
75189;SDS011;69198;44.694;37.790;2023-05-27T03:44:47;13.15;;;5.85;;
75189;SDS011;69198;44.694;37.790;2023-05-27T03:45:48;15.35;;;6.00;;
75189;SDS011;69198;44.694;37.790;2023-05-27T03:46:50;15.38;;;6.40;;
75189;SDS011;69198;44.694;37.790;2023-05-27T03:47:52;13.83;;;6.40;;
75189;SDS011;69198;44.694;37.790;2023-05-27T03:48:54;15.55;;;6.82;;
75189;SDS011;69198;44.694;37.790;2023-05-27T03:49:56;19.33;;;7.20;;
75189;SDS011;69198;44.694;37.790;2023-05-27T03:50:57;17.42;;;7.20;;
75189;SDS011;69198;44.694;37.790;2023-05-27T03:52:06;15.75;;;6.65;;
75189;SDS011;69198;44.694;37.790;2023-05-27T03:53:07;17.95;;;7.13;;
75189;SDS011;69198;44.694;37.790;2023-05-27T03:54:08;16.95;;;7.35;;
75189;SDS011;69198;44.694;37.790;2023-05-27T03:55:09;20.02;;;7.68;;
75189;SDS011;69198;44.694;37.790;2023-05-27T03:56:11;20.00;;;7.78;;
75189;SDS011;69198;44.694;37.790;2023-05-27T03:57:12;18.80;;;7.67;;
75189;SDS011;69198;44.694;37.790;2023-05-27T03:58:13;15.25;;;6.45;;
75189;SDS011;69198;44.694;37.790;2023-05-27T03:59:15;15.95;;;6.88;;
75189;SDS011;69198;44.694;37.790;2023-05-27T04:00:16;17.40;;;7.40;;
75189;SDS011;69198;44.694;37.790;2023-05-27T04:01:25;20.10;;;9.27;;
75189;SDS011;69198;44.694;37.790;2023-05-27T04:02:28;17.45;;;8.10;;
75189;SDS011;69198;44.694;37.790;2023-05-27T04:03:29;17.65;;;7.97;;
75189;SDS011;69198;44.694;37.790;2023-05-27T04:04:30;17.83;;;8.48;;
75189;SDS011;69198;44.694;37.790;2023-05-27T04:05:31;19.63;;;7.97;;
75189;SDS011;69198;44.694;37.790;2023-05-27T04:06:32;18.65;;;6.57;;
75189;SDS011;69198;44.694;37.790;2023-05-27T04:07:33;15.53;;;6.60;;
75189;SDS011;69198;44.694;37.790;2023-05-27T04:08:36;14.73;;;6.28;;
75189;SDS011;69198;44.694;37.790;2023-05-27T04:09:38;16.23;;;6.85;;
75189;SDS011;69198;44.694;37.790;2023-05-27T04:10:42;15.57;;;6.68;;
75189;SDS011;69198;44.694;37.790;2023-05-27T04:11:43;15.38;;;6.50;;
75189;SDS011;69198;44.694;37.790;2023-05-27T04:12:44;15.75;;;6.70;;
75189;SDS011;69198;44.694;37.790;2023-05-27T04:13:45;14.80;;;6.60;;
75189;SDS011;69198;44.694;37.790;2023-05-27T04:14:47;16.48;;;6.72;;
75189;SDS011;69198;44.694;37.790;2023-05-27T04:15:48;17.85;;;6.78;;
75189;SDS011;69198;44.694;37.790;2023-05-27T04:16:49;13.40;;;5.95;;
75189;SDS011;69198;44.694;37.790;2023-05-27T04:17:53;14.50;;;5.97;;
75189;SDS011;69198;44.694;37.790;2023-05-27T04:18:54;15.07;;;5.82;;
75189;SDS011;69198;44.694;37.790;2023-05-27T04:19:55;16.15;;;6.20;;
75189;SDS011;69198;44.694;37.790;2023-05-27T04:20:58;13.57;;;5.97;;
75189;SDS011;69198;44.694;37.790;2023-05-27T04:21:59;15.95;;;6.28;;
75189;SDS011;69198;44.694;37.790;2023-05-27T04:23:00;17.83;;;6.93;;
75189;SDS011;69198;44.694;37.790;2023-05-27T04:24:02;19.77;;;8.52;;
75189;SDS011;69198;44.694;37.790;2023-05-27T04:25:04;22.00;;;8.93;;
75189;SDS011;69198;44.694;37.790;2023-05-27T04:26:12;23.15;;;8.82;;
75189;SDS011;69198;44.694;37.790;2023-05-27T04:27:19;22.83;;;9.02;;
75189;SDS011;69198;44.694;37.790;2023-05-27T04:28:21;20.50;;;7.93;;
75189;SDS011;69198;44.694;37.790;2023-05-27T04:29:22;20.17;;;8.15;;
75189;SDS011;69198;44.694;37.790;2023-05-27T04:30:23;18.83;;;8.40;;
75189;SDS011;69198;44.694;37.790;2023-05-27T04:31:25;17.83;;;8.00;;
75189;SDS011;69198;44.694;37.790;2023-05-27T04:32:43;20.45;;;8.55;;
75189;SDS011;69198;44.694;37.790;2023-05-27T04:33:44;21.75;;;8.38;;
75189;SDS011;69198;44.694;37.790;2023-05-27T04:34:47;19.58;;;8.48;;
75189;SDS011;69198;44.694;37.790;2023-05-27T04:35:49;20.08;;;8.20;;
75189;SDS011;69198;44.694;37.790;2023-05-27T04:36:54;19.50;;;8.40;;
75189;SDS011;69198;44.694;37.790;2023-05-27T04:37:59;18.38;;;7.30;;
75189;SDS011;69198;44.694;37.790;2023-05-27T04:39:07;17.20;;;8.03;;
75189;SDS011;69198;44.694;37.790;2023-05-27T04:40:10;19.60;;;7.95;;
75189;SDS011;69198;44.694;37.790;2023-05-27T04:41:28;18.20;;;7.80;;
75189;SDS011;69198;44.694;37.790;2023-05-27T04:42:48;20.20;;;8.00;;
75189;SDS011;69198;44.694;37.790;2023-05-27T04:43:50;17.92;;;6.75;;
75189;SDS011;69198;44.694;37.790;2023-05-27T04:44:54;16.48;;;7.00;;
75189;SDS011;69198;44.694;37.790;2023-05-27T04:45:55;17.58;;;7.05;;
75189;SDS011;69198;44.694;37.790;2023-05-27T04:46:59;16.25;;;6.90;;
75189;SDS011;69198;44.694;37.790;2023-05-27T04:48:01;16.42;;;6.93;;
75189;SDS011;69198;44.694;37.790;2023-05-27T04:49:02;14.88;;;6.85;;
75189;SDS011;69198;44.694;37.790;2023-05-27T04:50:03;14.97;;;6.90;;
75189;SDS011;69198;44.694;37.790;2023-05-27T04:51:05;15.07;;;6.65;;
75189;SDS011;69198;44.694;37.790;2023-05-27T04:52:08;13.77;;;6.40;;
75189;SDS011;69198;44.694;37.790;2023-05-27T04:53:09;15.73;;;6.93;;
75189;SDS011;69198;44.694;37.790;2023-05-27T04:54:10;15.38;;;6.82;;
75189;SDS011;69198;44.694;37.790;2023-05-27T04:55:13;12.80;;;5.70;;
75189;SDS011;69198;44.694;37.790;2023-05-27T04:56:15;14.60;;;6.88;;
75189;SDS011;69198;44.694;37.790;2023-05-27T04:57:18;17.75;;;7.15;;
75189;SDS011;69198;44.694;37.790;2023-05-27T04:58:19;16.92;;;7.00;;
75189;SDS011;69198;44.694;37.790;2023-05-27T04:59:23;16.63;;;6.97;;
75189;SDS011;69198;44.694;37.790;2023-05-27T05:00:31;16.13;;;7.40;;
75189;SDS011;69198;44.694;37.790;2023-05-27T05:01:37;17.45;;;6.95;;
75189;SDS011;69198;44.694;37.790;2023-05-27T05:03:06;18.10;;;6.72;;
75189;SDS011;69198;44.694;37.790;2023-05-27T05:04:11;14.90;;;6.30;;
75189;SDS011;69198;44.694;37.790;2023-05-27T05:05:20;14.68;;;7.05;;
75189;SDS011;69198;44.694;37.790;2023-05-27T05:06:21;15.25;;;6.78;;
75189;SDS011;69198;44.694;37.790;2023-05-27T05:07:24;17.08;;;6.97;;
75189;SDS011;69198;44.694;37.790;2023-05-27T05:08:26;16.58;;;6.80;;
75189;SDS011;69198;44.694;37.790;2023-05-27T05:09:27;18.45;;;7.13;;
75189;SDS011;69198;44.694;37.790;2023-05-27T05:10:30;17.85;;;7.40;;
75189;SDS011;69198;44.694;37.790;2023-05-27T05:11:32;15.70;;;7.30;;
75189;SDS011;69198;44.694;37.790;2023-05-27T05:12:33;18.67;;;7.07;;
75189;SDS011;69198;44.694;37.790;2023-05-27T05:13:34;19.17;;;7.80;;
75189;SDS011;69198;44.694;37.790;2023-05-27T05:14:35;18.92;;;8.48;;
75189;SDS011;69198;44.694;37.790;2023-05-27T05:15:39;19.52;;;8.02;;
75189;SDS011;69198;44.694;37.790;2023-05-27T05:16:41;18.08;;;8.07;;
75189;SDS011;69198;44.694;37.790;2023-05-27T05:17:43;20.38;;;8.65;;
75189;SDS011;69198;44.694;37.790;2023-05-27T05:18:45;20.70;;;9.13;;
75189;SDS011;69198;44.694;37.790;2023-05-27T05:19:46;21.58;;;7.90;;
75189;SDS011;69198;44.694;37.790;2023-05-27T05:20:48;19.60;;;7.97;;
75189;SDS011;69198;44.694;37.790;2023-05-27T05:21:52;21.20;;;8.30;;
75189;SDS011;69198;44.694;37.790;2023-05-27T05:22:54;17.27;;;7.38;;
75189;SDS011;69198;44.694;37.790;2023-05-27T05:23:55;21.20;;;8.32;;
75189;SDS011;69198;44.694;37.790;2023-05-27T05:24:56;20.05;;;8.25;;
75189;SDS011;69198;44.694;37.790;2023-05-27T05:26:10;16.75;;;7.35;;
75189;SDS011;69198;44.694;37.790;2023-05-27T05:27:15;18.77;;;7.97;;
75189;SDS011;69198;44.694;37.790;2023-05-27T05:28:16;20.70;;;7.90;;
75189;SDS011;69198;44.694;37.790;2023-05-27T05:29:18;18.77;;;8.40;;
75189;SDS011;69198;44.694;37.790;2023-05-27T05:30:19;21.42;;;9.43;;
75189;SDS011;69198;44.694;37.790;2023-05-27T05:31:20;17.27;;;6.88;;
75189;SDS011;69198;44.694;37.790;2023-05-27T05:32:22;16.67;;;7.40;;
75189;SDS011;69198;44.694;37.790;2023-05-27T05:33:23;17.70;;;7.95;;
75189;SDS011;69198;44.694;37.790;2023-05-27T05:34:24;18.50;;;7.93;;
75189;SDS011;69198;44.694;37.790;2023-05-27T05:35:26;18.67;;;7.75;;
75189;SDS011;69198;44.694;37.790;2023-05-27T05:36:33;17.42;;;7.47;;
75189;SDS011;69198;44.694;37.790;2023-05-27T05:37:39;17.08;;;7.50;;
75189;SDS011;69198;44.694;37.790;2023-05-27T05:38:40;19.05;;;8.35;;
75189;SDS011;69198;44.694;37.790;2023-05-27T05:39:41;19.85;;;11.10;;
75189;SDS011;69198;44.694;37.790;2023-05-27T05:40:44;21.90;;;10.95;;
75189;SDS011;69198;44.694;37.790;2023-05-27T05:41:51;19.45;;;9.35;;
75189;SDS011;69198;44.694;37.790;2023-05-27T05:42:53;21.37;;;8.87;;
75189;SDS011;69198;44.694;37.790;2023-05-27T05:43:54;18.63;;;8.30;;
75189;SDS011;69198;44.694;37.790;2023-05-27T05:44:55;15.77;;;7.75;;
75189;SDS011;69198;44.694;37.790;2023-05-27T05:45:56;16.48;;;8.00;;
75189;SDS011;69198;44.694;37.790;2023-05-27T05:47:00;19.30;;;7.35;;
75189;SDS011;69198;44.694;37.790;2023-05-27T05:48:01;14.35;;;6.90;;
75189;SDS011;69198;44.694;37.790;2023-05-27T05:49:05;18.95;;;7.22;;
75189;SDS011;69198;44.694;37.790;2023-05-27T05:50:14;13.60;;;6.45;;
75189;SDS011;69198;44.694;37.790;2023-05-27T05:51:15;15.60;;;7.13;;
75189;SDS011;69198;44.694;37.790;2023-05-27T05:52:20;18.50;;;7.50;;
75189;SDS011;69198;44.694;37.790;2023-05-27T05:53:21;14.77;;;6.60;;
75189;SDS011;69198;44.694;37.790;2023-05-27T05:54:22;15.43;;;6.40;;
75189;SDS011;69198;44.694;37.790;2023-05-27T05:55:27;16.63;;;5.72;;
75189;SDS011;69198;44.694;37.790;2023-05-27T05:56:30;16.00;;;5.82;;
75189;SDS011;69198;44.694;37.790;2023-05-27T05:57:32;15.40;;;6.18;;
75189;SDS011;69198;44.694;37.790;2023-05-27T05:58:35;12.30;;;5.53;;
75189;SDS011;69198;44.694;37.790;2023-05-27T05:59:36;16.00;;;5.70;;
75189;SDS011;69198;44.694;37.790;2023-05-27T06:00:37;11.80;;;5.67;;
75189;SDS011;69198;44.694;37.790;2023-05-27T06:02:02;13.37;;;5.67;;
75189;SDS011;69198;44.694;37.790;2023-05-27T06:03:04;13.13;;;5.55;;
75189;SDS011;69198;44.694;37.790;2023-05-27T06:04:20;12.13;;;5.75;;
75189;SDS011;69198;44.694;37.790;2023-05-27T06:05:22;12.95;;;5.57;;
75189;SDS011;69198;44.694;37.790;2023-05-27T06:06:24;14.48;;;5.50;;
75189;SDS011;69198;44.694;37.790;2023-05-27T06:07:52;14.15;;;5.55;;
75189;SDS011;69198;44.694;37.790;2023-05-27T06:08:53;10.93;;;5.00;;
75189;SDS011;69198;44.694;37.790;2023-05-27T06:09:54;14.68;;;5.32;;